Terminal Aerodrome Forecast
Issued by NWS

Home | Current Version | Previous Version | Text Only | Print | Product List | Glossary On
Versions: 1 2 3 4 5 6 7 8 9 10 11 12 13 14 15 16 17
000
FTUS43 KMQT 050524
TAFCMX
TAF
KCMX 050524Z 0506/0606 30007KT P6SM SCT030
      TEMPO 0506/0508 BKN030
     FM050800 28006KT 6SM -SHSN BKN025
     FM051500 27009KT P6SM VCSH SCT030
     FM060100 23007KT P6SM SCT200=

USA.gov is the U.S. government's official web portal to all federal, state and local government web resources and services.